sensor_id;sensor_type;location;lat;lon;timestamp;pressure;altitude;pressure_sealevel;temperature;humidity
11045;BME280;9786;42.714;23.272;2022-07-04T00:02:12;95174.53;;;21.49;80.45
11045;BME280;9786;42.714;23.272;2022-07-04T00:04:59;95171.91;;;21.42;80.69
11045;BME280;9786;42.714;23.272;2022-07-04T00:07:46;95186.00;;;21.43;80.75
11045;BME280;9786;42.714;23.272;2022-07-04T00:10:40;95183.31;;;21.49;79.15
11045;BME280;9786;42.714;23.272;2022-07-04T00:13:27;95175.19;;;21.44;77.98
11045;BME280;9786;42.714;23.272;2022-07-04T00:16:14;95178.88;;;21.43;77.36
11045;BME280;9786;42.714;23.272;2022-07-04T00:19:01;95187.00;;;21.42;76.78
11045;BME280;9786;42.714;23.272;2022-07-04T00:22:56;95185.22;;;21.29;76.86
11045;BME280;9786;42.714;23.272;2022-07-04T00:25:51;95181.19;;;21.20;78.01
11045;BME280;9786;42.714;23.272;2022-07-04T00:28:38;95175.94;;;21.13;77.99
11045;BME280;9786;42.714;23.272;2022-07-04T00:31:24;95165.50;;;21.18;77.76
11045;BME280;9786;42.714;23.272;2022-07-04T00:34:11;95169.78;;;21.19;77.02
11045;BME280;9786;42.714;23.272;2022-07-04T00:36:58;95163.06;;;21.17;76.96
11045;BME280;9786;42.714;23.272;2022-07-04T00:39:45;95153.69;;;21.14;76.49
11045;BME280;9786;42.714;23.272;2022-07-04T00:42:31;95160.66;;;21.09;76.50
11045;BME280;9786;42.714;23.272;2022-07-04T00:45:04;95153.16;;;21.05;76.32
11045;BME280;9786;42.714;23.272;2022-07-04T00:47:53;95155.63;;;21.00;77.02
11045;BME280;9786;42.714;23.272;2022-07-04T00:50:43;95151.94;;;21.01;77.26
11045;BME280;9786;42.714;23.272;2022-07-04T00:53:30;95156.66;;;20.99;76.99
11045;BME280;9786;42.714;23.272;2022-07-04T00:56:20;95156.84;;;20.98;76.34
11045;BME280;9786;42.714;23.272;2022-07-04T00:59:07;95157.88;;;20.97;75.93
11045;BME280;9786;42.714;23.272;2022-07-04T01:01:53;95150.19;;;20.89;76.19
11045;BME280;9786;42.714;23.272;2022-07-04T01:04:41;95153.03;;;20.87;76.62
11045;BME280;9786;42.714;23.272;2022-07-04T01:07:20;95155.25;;;20.90;75.57
11045;BME280;9786;42.714;23.272;2022-07-04T01:10:07;95151.59;;;20.91;75.27
11045;BME280;9786;42.714;23.272;2022-07-04T01:12:54;95154.22;;;20.91;75.37
11045;BME280;9786;42.714;23.272;2022-07-04T01:15:41;95160.97;;;20.87;75.03
11045;BME280;9786;42.714;23.272;2022-07-04T01:18:28;95159.56;;;20.85;73.68
11045;BME280;9786;42.714;23.272;2022-07-04T01:21:14;95162.41;;;20.90;73.82
11045;BME280;9786;42.714;23.272;2022-07-04T01:24:01;95156.09;;;20.84;73.71
11045;BME280;9786;42.714;23.272;2022-07-04T01:28:21;95161.47;;;20.64;74.21
11045;BME280;9786;42.714;23.272;2022-07-04T01:31:10;95158.22;;;20.62;74.26
11045;BME280;9786;42.714;23.272;2022-07-04T01:33:57;95154.16;;;20.66;73.72
11045;BME280;9786;42.714;23.272;2022-07-04T01:36:43;95159.63;;;20.65;73.43
11045;BME280;9786;42.714;23.272;2022-07-04T01:39:32;95156.81;;;20.60;72.70
11045;BME280;9786;42.714;23.272;2022-07-04T01:42:18;95167.41;;;20.60;73.50
11045;BME280;9786;42.714;23.272;2022-07-04T01:45:05;95168.22;;;20.67;72.55
11045;BME280;9786;42.714;23.272;2022-07-04T01:47:52;95175.91;;;20.75;72.26
11045;BME280;9786;42.714;23.272;2022-07-04T01:52:52;95162.28;;;20.65;71.27
11045;BME280;9786;42.714;23.272;2022-07-04T01:55:39;95166.41;;;20.54;71.46
11045;BME280;9786;42.714;23.272;2022-07-04T01:58:26;95164.41;;;20.49;70.37
11045;BME280;9786;42.714;23.272;2022-07-04T02:01:12;95166.19;;;20.49;71.06
11045;BME280;9786;42.714;23.272;2022-07-04T02:04:17;95169.28;;;20.39;70.89
11045;BME280;9786;42.714;23.272;2022-07-04T02:07:04;95167.25;;;20.35;71.01
11045;BME280;9786;42.714;23.272;2022-07-04T02:09:51;95165.84;;;20.25;71.66
11045;BME280;9786;42.714;23.272;2022-07-04T02:13:33;95168.91;;;20.22;73.57
11045;BME280;9786;42.714;23.272;2022-07-04T02:16:20;95169.50;;;20.24;73.20
11045;BME280;9786;42.714;23.272;2022-07-04T02:19:07;95174.63;;;20.13;75.89
11045;BME280;9786;42.714;23.272;2022-07-04T02:21:54;95179.09;;;20.12;72.80
11045;BME280;9786;42.714;23.272;2022-07-04T02:24:40;95176.44;;;20.19;70.52
11045;BME280;9786;42.714;23.272;2022-07-04T02:27:27;95181.13;;;20.10;71.60
11045;BME280;9786;42.714;23.272;2022-07-04T02:30:13;95180.34;;;19.96;74.84
11045;BME280;9786;42.714;23.272;2022-07-04T02:33:00;95180.53;;;19.82;80.13
11045;BME280;9786;42.714;23.272;2022-07-04T02:37:24;95176.28;;;19.74;81.36
11045;BME280;9786;42.714;23.272;2022-07-04T02:40:10;95169.16;;;19.68;78.03
11045;BME280;9786;42.714;23.272;2022-07-04T02:42:57;95175.03;;;19.63;86.51
11045;BME280;9786;42.714;23.272;2022-07-04T02:45:44;95177.25;;;19.53;89.07
11045;BME280;9786;42.714;23.272;2022-07-04T02:48:31;95183.50;;;19.32;95.90
11045;BME280;9786;42.714;23.272;2022-07-04T02:51:23;95188.56;;;19.14;96.10
11045;BME280;9786;42.714;23.272;2022-07-04T02:54:10;95191.16;;;19.01;100.00
11045;BME280;9786;42.714;23.272;2022-07-04T02:59:26;95198.91;;;19.02;100.00
11045;BME280;9786;42.714;23.272;2022-07-04T03:02:13;95203.59;;;19.07;100.00
11045;BME280;9786;42.714;23.272;2022-07-04T03:05:00;95209.63;;;18.94;100.00
11045;BME280;9786;42.714;23.272;2022-07-04T03:07:49;95200.44;;;18.83;100.00
11045;BME280;9786;42.714;23.272;2022-07-04T03:10:36;95202.84;;;18.78;100.00
11045;BME280;9786;42.714;23.272;2022-07-04T03:13:22;95205.09;;;18.81;100.00
11045;BME280;9786;42.714;23.272;2022-07-04T03:16:11;95206.50;;;18.77;100.00
11045;BME280;9786;42.714;23.272;2022-07-04T03:36:22;95208.09;;;18.72;100.00
11045;BME280;9786;42.714;23.272;2022-07-04T03:39:10;95212.00;;;18.76;100.00
11045;BME280;9786;42.714;23.272;2022-07-04T03:41:58;95214.44;;;18.84;100.00
11045;BME280;9786;42.714;23.272;2022-07-04T03:44:46;95219.97;;;18.89;100.00
11045;BME280;9786;42.714;23.272;2022-07-04T03:47:33;95215.09;;;18.92;100.00
11045;BME280;9786;42.714;23.272;2022-07-04T03:50:21;95203.53;;;19.00;100.00
11045;BME280;9786;42.714;23.272;2022-07-04T03:53:08;95199.94;;;19.08;100.00
11045;BME280;9786;42.714;23.272;2022-07-04T04:13:56;95210.88;;;19.72;100.00
11045;BME280;9786;42.714;23.272;2022-07-04T04:20:10;95212.47;;;19.93;100.00
11045;BME280;9786;42.714;23.272;2022-07-04T04:22:57;95216.56;;;19.96;100.00
11045;BME280;9786;42.714;23.272;2022-07-04T04:25:45;95217.78;;;20.00;100.00
11045;BME280;9786;42.714;23.272;2022-07-04T04:28:36;95215.75;;;19.95;100.00
11045;BME280;9786;42.714;23.272;2022-07-04T04:31:26;95218.19;;;20.17;100.00
11045;BME280;9786;42.714;23.272;2022-07-04T04:36:59;95225.91;;;20.18;100.00
11045;BME280;9786;42.714;23.272;2022-07-04T04:39:50;95220.19;;;20.15;100.00
11045;BME280;9786;42.714;23.272;2022-07-04T04:42:38;95227.75;;;20.11;100.00
11045;BME280;9786;42.714;23.272;2022-07-04T04:45:25;95222.47;;;20.18;100.00
11045;BME280;9786;42.714;23.272;2022-07-04T04:48:12;95222.22;;;20.26;100.00
11045;BME280;9786;42.714;23.272;2022-07-04T04:50:59;95224.69;;;20.34;100.00
11045;BME280;9786;42.714;23.272;2022-07-04T04:53:54;95221.00;;;20.48;100.00
11045;BME280;9786;42.714;23.272;2022-07-04T04:59:02;95220.94;;;20.75;100.00
11045;BME280;9786;42.714;23.272;2022-07-04T05:01:52;95223.81;;;20.73;94.39
11045;BME280;9786;42.714;23.272;2022-07-04T05:04:40;95224.69;;;21.12;86.95
11045;BME280;9786;42.714;23.272;2022-07-04T05:07:27;95227.59;;;21.42;84.74
11045;BME280;9786;42.714;23.272;2022-07-04T05:10:14;95218.09;;;21.66;81.33
11045;BME280;9786;42.714;23.272;2022-07-04T05:13:03;95223.47;;;21.84;80.77
11045;BME280;9786;42.714;23.272;2022-07-04T05:15:51;95217.03;;;21.99;75.55
11045;BME280;9786;42.714;23.272;2022-07-04T05:31:36;95218.03;;;22.91;72.93
11045;BME280;9786;42.714;23.272;2022-07-04T05:34:24;95222.53;;;23.39;70.40
11045;BME280;9786;42.714;23.272;2022-07-04T05:37:12;95216.56;;;23.55;68.60
11045;BME280;9786;42.714;23.272;2022-07-04T05:40:01;95224.88;;;23.47;69.94
11045;BME280;9786;42.714;23.272;2022-07-04T05:42:50;95225.56;;;23.73;68.35
11045;BME280;9786;42.714;23.272;2022-07-04T05:45:37;95221.34;;;25.12;61.97
11045;BME280;9786;42.714;23.272;2022-07-04T05:48:24;95221.25;;;25.93;58.02
11045;BME280;9786;42.714;23.272;2022-07-04T05:51:11;95215.28;;;25.05;61.76
11045;BME280;9786;42.714;23.272;2022-07-04T06:04:12;95217.44;;;24.33;62.94
11045;BME280;9786;42.714;23.272;2022-07-04T06:07:01;95219.25;;;26.34;56.05
11045;BME280;9786;42.714;23.272;2022-07-04T06:09:51;95217.91;;;29.38;46.26
11045;BME280;9786;42.714;23.272;2022-07-04T06:12:39;95218.34;;;29.98;43.50
11045;BME280;9786;42.714;23.272;2022-07-04T06:15:28;95213.53;;;29.17;43.81
11045;BME280;9786;42.714;23.272;2022-07-04T06:18:16;95205.00;;;31.24;39.53
11045;BME280;9786;42.714;23.272;2022-07-04T06:21:04;95217.22;;;30.91;37.82
11045;BME280;9786;42.714;23.272;2022-07-04T06:35:29;95200.84;;;33.42;35.35
11045;BME280;9786;42.714;23.272;2022-07-04T06:38:35;95202.06;;;31.70;36.69
11045;BME280;9786;42.714;23.272;2022-07-04T06:41:21;95214.63;;;30.30;39.73
11045;BME280;9786;42.714;23.272;2022-07-04T06:44:08;95208.03;;;31.07;38.27
11045;BME280;9786;42.714;23.272;2022-07-04T06:46:53;95202.84;;;32.54;35.36
11045;BME280;9786;42.714;23.272;2022-07-04T06:49:40;95200.00;;;32.69;35.66
11045;BME280;9786;42.714;23.272;2022-07-04T06:52:27;95194.50;;;33.27;33.94
11045;BME280;9786;42.714;23.272;2022-07-04T06:56:46;95195.69;;;34.02;33.35
11045;BME280;9786;42.714;23.272;2022-07-04T06:59:35;95182.59;;;33.52;32.05
11045;BME280;9786;42.714;23.272;2022-07-04T07:02:22;95193.63;;;31.42;35.29
11045;BME280;9786;42.714;23.272;2022-07-04T07:05:08;95183.47;;;31.73;35.57
11045;BME280;9786;42.714;23.272;2022-07-04T07:07:55;95183.25;;;31.10;37.48
11045;BME280;9786;42.714;23.272;2022-07-04T07:10:42;95176.41;;;33.04;33.07
11045;BME280;9786;42.714;23.272;2022-07-04T07:13:29;95186.16;;;32.47;32.89
11045;BME280;9786;42.714;23.272;2022-07-04T07:17:36;95174.78;;;32.21;34.58
11045;BME280;9786;42.714;23.272;2022-07-04T07:20:23;95168.88;;;31.35;37.09
11045;BME280;9786;42.714;23.272;2022-07-04T07:23:12;95165.31;;;31.45;37.45
11045;BME280;9786;42.714;23.272;2022-07-04T07:25:59;95170.00;;;31.73;36.49
11045;BME280;9786;42.714;23.272;2022-07-04T07:28:47;95170.00;;;31.73;36.49
11045;BME280;9786;42.714;23.272;2022-07-04T07:31:34;95171.47;;;31.56;34.85
11045;BME280;9786;42.714;23.272;2022-07-04T07:34:21;95175.00;;;32.83;34.08
11045;BME280;9786;42.714;23.272;2022-07-04T07:38:26;95173.16;;;31.41;36.01
11045;BME280;9786;42.714;23.272;2022-07-04T07:41:13;95164.19;;;31.56;36.89
11045;BME280;9786;42.714;23.272;2022-07-04T07:44:01;95170.31;;;31.67;36.96
11045;BME280;9786;42.714;23.272;2022-07-04T07:46:48;95166.66;;;32.55;35.77
11045;BME280;9786;42.714;23.272;2022-07-04T07:49:36;95155.47;;;31.69;36.97
11045;BME280;9786;42.714;23.272;2022-07-04T07:52:22;95163.69;;;31.49;37.67
11045;BME280;9786;42.714;23.272;2022-07-04T07:55:13;95158.34;;;30.59;37.85
11045;BME280;9786;42.714;23.272;2022-07-04T09:28:25;95121.34;;;32.52;40.60
11045;BME280;9786;42.714;23.272;2022-07-04T09:31:17;95112.81;;;32.93;35.70
11045;BME280;9786;42.714;23.272;2022-07-04T09:34:20;95108.09;;;33.03;37.16
11045;BME280;9786;42.714;23.272;2022-07-04T09:37:07;95091.84;;;32.61;36.57
11045;BME280;9786;42.714;23.272;2022-07-04T09:39:55;95099.22;;;33.41;36.54
11045;BME280;9786;42.714;23.272;2022-07-04T09:42:42;95095.75;;;33.16;33.88
11045;BME280;9786;42.714;23.272;2022-07-04T09:45:29;95097.81;;;34.14;33.98
11045;BME280;9786;42.714;23.272;2022-07-04T10:03:59;95095.50;;;34.07;35.27
11045;BME280;9786;42.714;23.272;2022-07-04T10:06:47;95088.97;;;34.68;33.06
11045;BME280;9786;42.714;23.272;2022-07-04T10:09:34;95097.69;;;34.51;33.23
11045;BME280;9786;42.714;23.272;2022-07-04T10:12:25;95098.41;;;34.84;32.78
11045;BME280;9786;42.714;23.272;2022-07-04T10:15:12;95096.56;;;33.36;34.85
11045;BME280;9786;42.714;23.272;2022-07-04T10:18:00;95091.50;;;33.67;35.40
11045;BME280;9786;42.714;23.272;2022-07-04T10:20:49;95088.16;;;33.37;37.61
11045;BME280;9786;42.714;23.272;2022-07-04T10:23:36;95091.72;;;32.95;35.67
11045;BME280;9786;42.714;23.272;2022-07-04T10:51:32;95073.38;;;32.68;37.11
11045;BME280;9786;42.714;23.272;2022-07-04T10:54:21;95057.69;;;33.13;37.64
11045;BME280;9786;42.714;23.272;2022-07-04T11:02:48;95052.41;;;34.11;36.41
11045;BME280;9786;42.714;23.272;2022-07-04T11:05:36;95044.03;;;33.23;37.41
11045;BME280;9786;42.714;23.272;2022-07-04T11:08:23;95042.38;;;32.89;38.94
11045;BME280;9786;42.714;23.272;2022-07-04T11:11:46;95045.56;;;33.29;35.57
11045;BME280;9786;42.714;23.272;2022-07-04T12:05:17;94982.97;;;32.22;39.88
11045;BME280;9786;42.714;23.272;2022-07-04T12:08:05;94985.22;;;32.15;40.78
11045;BME280;9786;42.714;23.272;2022-07-04T12:11:13;94973.09;;;32.13;41.01
11045;BME280;9786;42.714;23.272;2022-07-04T12:14:12;94968.06;;;31.77;40.82
11045;BME280;9786;42.714;23.272;2022-07-04T12:19:59;94961.69;;;31.39;41.94
11045;BME280;9786;42.714;23.272;2022-07-04T12:22:50;94964.38;;;32.21;40.96
11045;BME280;9786;42.714;23.272;2022-07-04T12:25:38;94964.66;;;32.62;40.27
11045;BME280;9786;42.714;23.272;2022-07-04T12:40:29;94954.50;;;31.29;41.21
11045;BME280;9786;42.714;23.272;2022-07-04T12:43:16;94958.44;;;31.71;41.17
11045;BME280;9786;42.714;23.272;2022-07-04T12:45:52;94958.63;;;31.74;41.30
11045;BME280;9786;42.714;23.272;2022-07-04T12:51:51;94955.06;;;32.32;41.50
11045;BME280;9786;42.714;23.272;2022-07-04T12:54:40;94969.31;;;31.90;42.02
11045;BME280;9786;42.714;23.272;2022-07-04T12:57:28;94955.63;;;30.84;42.77
11045;BME280;9786;42.714;23.272;2022-07-04T13:00:16;94965.25;;;30.40;43.50
11045;BME280;9786;42.714;23.272;2022-07-04T13:03:24;94955.94;;;30.07;45.17
11045;BME280;9786;42.714;23.272;2022-07-04T13:24:17;94933.63;;;30.72;43.57
11045;BME280;9786;42.714;23.272;2022-07-04T13:27:10;94932.63;;;30.96;43.94
11045;BME280;9786;42.714;23.272;2022-07-04T13:30:12;94932.56;;;30.73;42.44
11045;BME280;9786;42.714;23.272;2022-07-04T13:33:03;94926.91;;;30.69;43.43
11045;BME280;9786;42.714;23.272;2022-07-04T13:35:53;94923.88;;;30.81;42.62
11045;BME280;9786;42.714;23.272;2022-07-04T13:38:42;94923.69;;;30.72;43.06
11045;BME280;9786;42.714;23.272;2022-07-04T13:41:44;94923.69;;;30.72;41.66
11045;BME280;9786;42.714;23.272;2022-07-04T14:01:56;94888.41;;;30.68;43.68
11045;BME280;9786;42.714;23.272;2022-07-04T14:08:03;94892.06;;;30.43;43.28
11045;BME280;9786;42.714;23.272;2022-07-04T14:10:55;94882.81;;;30.60;43.57
11045;BME280;9786;42.714;23.272;2022-07-04T14:13:42;94874.47;;;30.61;43.87
11045;BME280;9786;42.714;23.272;2022-07-04T14:16:31;94871.88;;;30.85;43.03
11045;BME280;9786;42.714;23.272;2022-07-04T14:19:18;94875.41;;;30.81;42.89
11045;BME280;9786;42.714;23.272;2022-07-04T14:41:57;94864.72;;;30.26;44.91
11045;BME280;9786;42.714;23.272;2022-07-04T14:44:48;94880.34;;;30.24;44.40
11045;BME280;9786;42.714;23.272;2022-07-04T14:47:35;94876.84;;;30.24;45.52
11045;BME280;9786;42.714;23.272;2022-07-04T14:50:23;94877.63;;;30.29;45.25
11045;BME280;9786;42.714;23.272;2022-07-04T14:53:10;94868.16;;;30.37;45.51
11045;BME280;9786;42.714;23.272;2022-07-04T14:55:58;94863.53;;;30.48;44.89
11045;BME280;9786;42.714;23.272;2022-07-04T14:58:45;94861.09;;;30.51;44.67
11045;BME280;9786;42.714;23.272;2022-07-04T15:01:34;94867.94;;;30.33;45.01
11045;BME280;9786;42.714;23.272;2022-07-04T15:44:39;94853.47;;;30.24;46.38
11045;BME280;9786;42.714;23.272;2022-07-04T15:47:27;94852.16;;;30.16;46.14
11045;BME280;9786;42.714;23.272;2022-07-04T15:50:14;94852.72;;;30.13;46.30
11045;BME280;9786;42.714;23.272;2022-07-04T15:53:02;94849.06;;;29.84;47.17
11045;BME280;9786;42.714;23.272;2022-07-04T15:55:54;94848.28;;;29.83;46.81
11045;BME280;9786;42.714;23.272;2022-07-04T15:58:41;94856.56;;;29.87;47.43
11045;BME280;9786;42.714;23.272;2022-07-04T16:01:29;94861.16;;;29.86;47.27
11045;BME280;9786;42.714;23.272;2022-07-04T16:14:33;94854.72;;;29.77;48.33
11045;BME280;9786;42.714;23.272;2022-07-04T16:17:21;94861.75;;;29.68;48.20
11045;BME280;9786;42.714;23.272;2022-07-04T16:20:09;94868.75;;;29.64;48.15
11045;BME280;9786;42.714;23.272;2022-07-04T16:22:58;94865.56;;;29.62;48.49
11045;BME280;9786;42.714;23.272;2022-07-04T16:25:46;94868.78;;;29.59;48.86
11045;BME280;9786;42.714;23.272;2022-07-04T16:28:48;94868.50;;;29.55;49.04
11045;BME280;9786;42.714;23.272;2022-07-04T16:31:37;94865.00;;;29.60;49.24
11045;BME280;9786;42.714;23.272;2022-07-04T17:10:28;94899.94;;;28.83;49.68
11045;BME280;9786;42.714;23.272;2022-07-04T17:13:32;94906.41;;;28.87;49.94
11045;BME280;9786;42.714;23.272;2022-07-04T17:16:20;94907.47;;;28.71;50.72
11045;BME280;9786;42.714;23.272;2022-07-04T17:19:08;94907.19;;;28.68;50.34
11045;BME280;9786;42.714;23.272;2022-07-04T17:21:59;94906.13;;;28.64;50.72
11045;BME280;9786;42.714;23.272;2022-07-04T17:24:46;94907.72;;;28.54;51.47
11045;BME280;9786;42.714;23.272;2022-07-04T17:27:34;94909.88;;;28.52;51.24
11045;BME280;9786;42.714;23.272;2022-07-04T17:59:08;94905.13;;;27.97;51.45
11045;BME280;9786;42.714;23.272;2022-07-04T18:01:57;94893.59;;;27.91;51.31
11045;BME280;9786;42.714;23.272;2022-07-04T18:04:59;94893.03;;;27.89;50.77
11045;BME280;9786;42.714;23.272;2022-07-04T18:07:55;94903.97;;;27.77;50.96
11045;BME280;9786;42.714;23.272;2022-07-04T18:10:46;94905.00;;;27.71;50.28
11045;BME280;9786;42.714;23.272;2022-07-04T18:13:49;94907.69;;;27.71;50.11
11045;BME280;9786;42.714;23.272;2022-07-04T18:16:41;94905.44;;;27.63;50.19
11045;BME280;9786;42.714;23.272;2022-07-04T18:44:55;94919.78;;;27.37;49.28
11045;BME280;9786;42.714;23.272;2022-07-04T18:47:42;94933.41;;;27.35;49.27
11045;BME280;9786;42.714;23.272;2022-07-04T18:50:31;94934.44;;;27.29;49.33
11045;BME280;9786;42.714;23.272;2022-07-04T18:53:20;94934.44;;;27.29;49.45
11045;BME280;9786;42.714;23.272;2022-07-04T18:56:09;94943.00;;;27.26;49.46
11045;BME280;9786;42.714;23.272;2022-07-04T18:58:57;94948.59;;;27.24;49.33
11045;BME280;9786;42.714;23.272;2022-07-04T19:01:44;94948.09;;;27.27;48.86
11045;BME280;9786;42.714;23.272;2022-07-04T19:04:33;94957.69;;;27.23;49.18
11045;BME280;9786;42.714;23.272;2022-07-04T19:35:55;94958.69;;;26.36;53.24
11045;BME280;9786;42.714;23.272;2022-07-04T19:39:05;94962.50;;;26.18;56.11
11045;BME280;9786;42.714;23.272;2022-07-04T19:41:59;94958.53;;;25.99;57.34
11045;BME280;9786;42.714;23.272;2022-07-04T19:45:01;94962.78;;;25.78;59.20
11045;BME280;9786;42.714;23.272;2022-07-04T19:48:03;94968.44;;;25.65;59.82
11045;BME280;9786;42.714;23.272;2022-07-04T19:51:09;94963.78;;;25.55;61.65
11045;BME280;9786;42.714;23.272;2022-07-04T19:53:58;94965.81;;;25.48;61.28
11045;BME280;9786;42.714;23.272;2022-07-04T20:30:36;94990.81;;;25.08;61.25
11045;BME280;9786;42.714;23.272;2022-07-04T20:33:46;94993.19;;;24.93;62.53
11045;BME280;9786;42.714;23.272;2022-07-04T20:36:50;94995.25;;;24.74;64.63
11045;BME280;9786;42.714;23.272;2022-07-04T20:39:52;94994.97;;;24.59;65.95
11045;BME280;9786;42.714;23.272;2022-07-04T20:42:54;94996.63;;;24.48;66.37
11045;BME280;9786;42.714;23.272;2022-07-04T20:45:43;94992.72;;;24.51;66.46
11045;BME280;9786;42.714;23.272;2022-07-04T20:48:39;94997.78;;;24.52;64.64
11045;BME280;9786;42.714;23.272;2022-07-04T21:46:32;95024.56;;;23.82;55.73
11045;BME280;9786;42.714;23.272;2022-07-04T21:49:19;95026.66;;;23.80;55.86
11045;BME280;9786;42.714;23.272;2022-07-04T21:52:07;95027.66;;;23.79;55.85
11045;BME280;9786;42.714;23.272;2022-07-04T21:54:54;95039.50;;;23.71;55.08
11045;BME280;9786;42.714;23.272;2022-07-04T21:57:42;95034.63;;;23.80;54.13
11045;BME280;9786;42.714;23.272;2022-07-04T22:00:30;95034.53;;;23.75;53.52
11045;BME280;9786;42.714;23.272;2022-07-04T22:03:17;95030.13;;;23.80;53.37
11045;BME280;9786;42.714;23.272;2022-07-04T22:06:06;95039.84;;;23.63;53.52
11045;BME280;9786;42.714;23.272;2022-07-04T22:10:56;95048.75;;;23.69;51.38
11045;BME280;9786;42.714;23.272;2022-07-04T22:13:42;95057.28;;;23.59;51.23
11045;BME280;9786;42.714;23.272;2022-07-04T22:16:30;95049.19;;;23.54;51.31
11045;BME280;9786;42.714;23.272;2022-07-04T22:19:16;95042.56;;;23.56;50.80
11045;BME280;9786;42.714;23.272;2022-07-04T22:22:03;95044.41;;;23.44;50.50
11045;BME280;9786;42.714;23.272;2022-07-04T22:24:50;95055.41;;;23.36;49.81
11045;BME280;9786;42.714;23.272;2022-07-04T22:27:37;95050.91;;;23.36;49.65
11045;BME280;9786;42.714;23.272;2022-07-04T22:30:24;95057.84;;;23.37;48.86
11045;BME280;9786;42.714;23.272;2022-07-04T22:33:01;95045.34;;;23.38;48.90
11045;BME280;9786;42.714;23.272;2022-07-04T22:35:50;95056.44;;;23.35;48.67
11045;BME280;9786;42.714;23.272;2022-07-04T22:38:37;95065.56;;;23.39;48.67
11045;BME280;9786;42.714;23.272;2022-07-04T22:41:23;95069.66;;;23.42;47.96
11045;BME280;9786;42.714;23.272;2022-07-04T22:44:10;95078.53;;;23.35;47.57
11045;BME280;9786;42.714;23.272;2022-07-04T22:46:56;95074.47;;;23.33;46.95
11045;BME280;9786;42.714;23.272;2022-07-04T22:49:43;95076.19;;;23.27;47.08
11045;BME280;9786;42.714;23.272;2022-07-04T22:52:30;95080.28;;;23.30;46.47
11045;BME280;9786;42.714;23.272;2022-07-04T22:55:09;95073.31;;;23.29;46.05
11045;BME280;9786;42.714;23.272;2022-07-04T22:57:57;95067.97;;;23.29;46.51
11045;BME280;9786;42.714;23.272;2022-07-04T23:00:44;95060.72;;;23.24;46.27
11045;BME280;9786;42.714;23.272;2022-07-04T23:03:31;95072.38;;;23.23;46.49
11045;BME280;9786;42.714;23.272;2022-07-04T23:06:18;95076.75;;;23.18;46.48
11045;BME280;9786;42.714;23.272;2022-07-04T23:09:05;95064.72;;;23.15;46.19
11045;BME280;9786;42.714;23.272;2022-07-04T23:11:51;95065.41;;;23.10;46.28
11045;BME280;9786;42.714;23.272;2022-07-04T23:15:48;95063.91;;;23.14;45.73
11045;BME280;9786;42.714;23.272;2022-07-04T23:18:36;95064.50;;;23.17;45.21
11045;BME280;9786;42.714;23.272;2022-07-04T23:21:23;95057.56;;;23.16;45.56
11045;BME280;9786;42.714;23.272;2022-07-04T23:24:10;95060.78;;;23.18;45.42
11045;BME280;9786;42.714;23.272;2022-07-04T23:26:57;95061.25;;;23.14;45.87
11045;BME280;9786;42.714;23.272;2022-07-04T23:29:43;95061.16;;;23.21;45.57
11045;BME280;9786;42.714;23.272;2022-07-04T23:32:30;95063.91;;;23.14;46.01
11045;BME280;9786;42.714;23.272;2022-07-04T23:35:17;95072.72;;;23.15;46.20
11045;BME280;9786;42.714;23.272;2022-07-04T23:38:59;95065.94;;;23.01;46.35
11045;BME280;9786;42.714;23.272;2022-07-04T23:41:46;95070.22;;;23.02;46.15
11045;BME280;9786;42.714;23.272;2022-07-04T23:44:33;95073.31;;;22.69;49.26
11045;BME280;9786;42.714;23.272;2022-07-04T23:47:19;95064.66;;;22.43;49.80
11045;BME280;9786;42.714;23.272;2022-07-04T23:50:06;95056.69;;;22.43;48.66
11045;BME280;9786;42.714;23.272;2022-07-04T23:52:53;95053.56;;;22.46;48.91
11045;BME280;9786;42.714;23.272;2022-07-04T23:55:39;95061.47;;;22.53;47.90
11045;BME280;9786;42.714;23.272;2022-07-04T23:59:40;95050.75;;;22.59;47.94
